BarenTS Sea — 9VAP5 — position and weather

sailwx.info

Track history (hours):
 
Tides and Currents Weather Stations Pressure Air Temp Water Temp Dewpoint Dewpoint Depression Visibility Wind Speed Wind Dir Waves Ship Positions

BarenTS Sea

Last reported at 2014-Nov-22 13:29 UTC. Time now 2014-Nov-22 14:29 UTC.
Position N 41°22' E 029°17'.

Length 248 m; draft 8 m.

Type: Tanker. MMSI: 563909000.

Date/timePositionNaut miles runAvg speedWind from/ knotsBaromVisibWave heightAir tempDewpointWater temp
2014-Nov-22 13:29N 41°22' E 029°17'8 8.1
2014-Nov-22 12:30N 41°15' E 029°11'17 8.6
2014-Nov-22 10:31N 41°00' E 028°60'8 8.2
2014-Nov-22 09:33N 40°53' E 028°56'7 6.5
2014-Nov-22 08:32N 40°47' E 028°54'1 0.9
2014-Nov-22 07:28N 40°46' E 028°55'1 0.9
2014-Nov-22 06:33N 40°47' E 028°55'1 0.9
2014-Nov-22 05:33N 40°47' E 028°55'1 1.0
2014-Nov-22 04:32N 40°48' E 028°55'1 1.0
2014-Nov-22 03:33N 40°49' E 028°55'1 1.0
2014-Nov-22 02:33N 40°50' E 028°55'0 0.0
2014-Nov-22 01:32N 40°50' E 028°55'1 1.3
2014-Nov-22 00:33N 40°51' E 028°54'7 7.2
2014-Nov-21 23:32N 40°50' E 028°44'10 9.3
2014-Nov-21 22:25N 40°49' E 028°31'  
2014-Nov-16 05:04N 38°19' E 024°52'12 7.9
2014-Nov-16 03:34N 38°09' E 024°45'10 7.6
2014-Nov-16 02:12N 37°60' E 024°38'5 7.4
2014-Nov-16 01:34N 37°55' E 024°36'8 7.6
2014-Nov-16 00:34N 37°48' E 024°34'8 8.2
2014-Nov-15 23:34N 37°40' E 024°31'8 7.8
2014-Nov-15 22:34N 37°33' E 024°26'8 8.1
2014-Nov-15 21:33N 37°28' E 024°19'8 8.3
2014-Nov-15 20:33N 37°20' E 024°15'8 8.0
2014-Nov-15 19:33N 37°12' E 024°12'8 8.0
2014-Nov-15 18:34N 37°05' E 024°09'8 7.6
2014-Nov-15 17:33N 36°57' E 024°06'8 7.9
2014-Nov-15 16:33N 36°50' E 024°03'8 7.9
2014-Nov-15 15:33N 36°42' E 023°60'8 8.0
2014-Nov-15 14:33N 36°35' E 023°56'9 8.2
2014-Nov-15 13:30N 36°27' E 023°52'  
2014-Nov-13 03:30N 36°18' E 014°36'11410.3
2014-Nov-12 16:29N 36°54' E 012°21'  
Track history (hours):
 
Tides and Currents Weather Stations Pressure Air Temp Water Temp Dewpoint Dewpoint Depression Visibility Wind Speed Wind Dir Waves Ship Positions

BarenTS Sea

Last reported at 2014-Nov-22 13:29 UTC. Time now 2014-Nov-22 14:29 UTC.
Position N 41°22' E 029°17'.

Length 248 m; draft 8 m.

Type: Tanker. MMSI: 563909000.

Date/timePositionNaut miles runAvg speedWind from/ knotsBaromVisibWave heightAir tempDewpointWater temp
2014-Nov-22 13:29N 41°22' E 029°17'8 8.1
2014-Nov-22 12:30N 41°15' E 029°11'17 8.6
2014-Nov-22 10:31N 41°00' E 028°60'8 8.2
2014-Nov-22 09:33N 40°53' E 028°56'7 6.5
2014-Nov-22 08:32N 40°47' E 028°54'1 0.9
2014-Nov-22 07:28N 40°46' E 028°55'1 0.9
2014-Nov-22 06:33N 40°47' E 028°55'1 0.9
2014-Nov-22 05:33N 40°47' E 028°55'1 1.0
2014-Nov-22 04:32N 40°48' E 028°55'1 1.0
2014-Nov-22 03:33N 40°49' E 028°55'1 1.0
2014-Nov-22 02:33N 40°50' E 028°55'0 0.0
2014-Nov-22 01:32N 40°50' E 028°55'1 1.3
2014-Nov-22 00:33N 40°51' E 028°54'7 7.2
2014-Nov-21 23:32N 40°50' E 028°44'10 9.3
2014-Nov-21 22:25N 40°49' E 028°31'  
2014-Nov-16 05:04N 38°19' E 024°52'12 7.9
2014-Nov-16 03:34N 38°09' E 024°45'10 7.6
2014-Nov-16 02:12N 37°60' E 024°38'5 7.4
2014-Nov-16 01:34N 37°55' E 024°36'8 7.6
2014-Nov-16 00:34N 37°48' E 024°34'8 8.2
2014-Nov-15 23:34N 37°40' E 024°31'8 7.8
2014-Nov-15 22:34N 37°33' E 024°26'8 8.1
2014-Nov-15 21:33N 37°28' E 024°19'8 8.3
2014-Nov-15 20:33N 37°20' E 024°15'8 8.0
2014-Nov-15 19:33N 37°12' E 024°12'8 8.0
2014-Nov-15 18:34N 37°05' E 024°09'8 7.6
2014-Nov-15 17:33N 36°57' E 024°06'8 7.9
2014-Nov-15 16:33N 36°50' E 024°03'8 7.9
2014-Nov-15 15:33N 36°42' E 023°60'8 8.0
2014-Nov-15 14:33N 36°35' E 023°56'9 8.2
2014-Nov-15 13:30N 36°27' E 023°52'  
2014-Nov-13 03:30N 36°18' E 014°36'11410.3
2014-Nov-12 16:29N 36°54' E 012°21'  

Dump ship's entire track history